Main page
METAR-TAF:

METAR-TAF

Airports :

Southwest Washington Regional Airport

Kelso, Washington, United States

latitude: 46-07N, longitude: 122-54W, elevation: 16 ft

Current weather observation

The report was made 9 minutes ago, at 04:56 UTC
Wind 3 mph from the Northwest
Temperature 50°F
Humidity 71%
Pressure 30.17 in. Hg
Visibility: 10 miles
Clear sky

METAR: KKLS 190456Z AUTO 32003KT 10SM CLR 10/05 A3017 RMK AO2 SLP221 T01000050

Time: 22:05 (05:05 UTC)


TAF: missing

Weather observations and forecasts of more than 4000 airports (METAR and TAF reports).

The available stations are represented by yellow and red dots on the map.

Hover mouse over dot to see the name of the station.

Then click to see weather observations and forecasts.

To change the map : click on the green buttons with a black cross to zoom in, on the green button with a dash to zoom out, or on the green arrows for adjacent maps.


METAR-TAF: